LFST/SXB METAR and TAF weather

Enter ICAO airport designator
Station Type Date Time Source
LFST METAR 2021/03/07 08:00 UTC NOAA

LFST 070800Z AUTO VRB03KT CAVOK 02/M04 Q1024 NOSIG


Station Type Date Time Source
LFST Decoded METAR 2021/03/07 08:00 UTC NOAA

Strasbourg, France (LFST) 48-33N 007-38E 154M
Mar 07, 2021 - 03:00 AM EST / 2021.03.07 0800 UTC
Wind: Variable at 3 MPH (3 KT):0
Visibility: greater than 7 mile(s):0
Temperature: 35 F (2 C)
Dew Point: 24 F (-4 C)
Relative Humidity: 64%
Pressure (altimeter): 30.24 in. Hg (1024 hPa)
ob: LFST 070800Z AUTO VRB03KT CAVOK 02/M04 Q1024 NOSIG
cycle: 8

Station Type Date Time Source
LFST TAF 2021/03/07 06:22 UTC NOAA

TAF LFST 070500Z 0706/0806 01004KT CAVOK
TEMPO 0706/0724 BKN050

Example: see airport list